To NAV CANADA Home Page Login to a new session Search on AWWS site Disclaimer Vers la page française équivalente Tips FAQ What's new on the site To the Forecasts and Observations / NOTAM section To "File a Flight Plan" website Publications and other links Update of the User's profile FIC Telephone Numbers My Weather Data Folder Route Weather Data Regional Weather Data Local Weather Data To the Forecasts and Observations / NOTAM section
Request Generated 04/24/2019 at 16:00:52 UTC . Weather information available at that time is displayed.

METAR/TAF

PEACE RIVER/AB    

METAR CYPE 241500Z 28017G24KT 15SM BKN120 04/M07 A2990 RMK AC6 SLP145=
METAR CYPE 241400Z 28015G21KT 15SM BKN100 02/M08 A2988 RMK AC7 SLP141=
METAR CYPE 241300Z 28016G21KT 15SM BKN110 02/M09 A2987 RMK AC7 SLP135=

TAF CYPE 241239Z 2413/2501 26015G25KT P6SM SCT100 TEMPO 2413/2418
BKN100
FM241800 27020G30KT P6SM SCT060 TEMPO 2418/2501 P6SM -SHRA BKN060
RMK NXT FCST BY 241900Z=
Your time UTC time
Weather data provided by Environment Canada and NAV CANADA